Stations météo

Publicité
Sabadell Airport, Espagne (2008420): Température de l'air & dewpoint: 14.04.2019 22:00:00 - 20.04.2019 22:00:00 (CEST)Sabadell Airport, Espagne (2008420): Vitesse du vent: 14.04.2019 22:00:00 - 20.04.2019 22:00:00 (CEST)Sabadell Airport, Espagne (2008420): Direction du vent: 14.04.2019 22:00:00 - 20.04.2019 22:00:00 (CEST)Sabadell Airport, Espagne (2008420): visibility: 14.04.2019 22:00:00 - 20.04.2019 22:00:00 (CEST)
Date & Time tt [°C] td [°C] ff [km/h] ff [knt] dd vv [km]
20.04.2019 22:00:00 14,0 7,0 11 6 N 10
20.04.2019 21:00:00 14,0 8,0 11 6 N 10
20.04.2019 20:00:00 14,0 8,0 9 5 NNE 10
20.04.2019 19:00:00 15,0 7,0 9 5 ENE 10
20.04.2019 18:00:00 17,0 6,0 16 9 ENE 10
20.04.2019 17:00:00 17,0 6,0 18 10 NE 10
20.04.2019 16:00:00 18,0 6,0 16 9 ENE 10
20.04.2019 15:00:00 18,0 6,0 21 11 NE 10
20.04.2019 14:00:00 18,0 6,0 24 13 ENE 10
20.04.2019 13:00:00 18,0 7,0 18 10 NE 10
20.04.2019 12:00:00 18,0 7,0 26 14 NE 10
20.04.2019 11:00:00 18,0 6,0 22 12 NE 10
20.04.2019 10:00:00 17,0 6,0 21 11 NE 10
20.04.2019 09:00:00 16,0 6,0 15 8 ENE 10
20.04.2019 08:00:00 16,0 5,0 16 9 NE 10
20.04.2019 07:00:00 16,0 4,0 18 10 ENE 10
20.04.2019 06:00:00 16,0 4,0 15 8 ENE 10
20.04.2019 05:00:00 16,0 4,0 13 7 ENE 10
20.04.2019 04:00:00 17,0 4,0 15 8 ENE 10
20.04.2019 03:00:00 16,0 5,0 13 7 ENE 10
20.04.2019 02:00:00 16,0 5,0 13 7 ENE 10
20.04.2019 01:00:00 16,0 5,0 13 7 ENE 10
20.04.2019 00:00:00 16,0 6,0 18 10 ENE 10
19.04.2019 23:00:00 17,0 5,0 16 9 ENE 10
19.04.2019 22:00:00 16,0 5,0 8 4 NNE 10
19.04.2019 21:00:00 17,0 6,0 16 9 ENE 10
19.04.2019 20:00:00 18,0 8,0 21 11 ENE 10
19.04.2019 19:00:00 19,0 9,0 22 12 ENE 10
19.04.2019 18:00:00 20,0 7,0 24 13 ENE 10
19.04.2019 17:00:00 21,0 5,0 28 15 NE 10
19.04.2019 16:00:00 21,0 8,0 28 15 ENE 10
19.04.2019 15:00:00 20,0 8,0 28 15 NE 10
19.04.2019 14:00:00 20,0 8,0 24 13 ENE 10
19.04.2019 13:00:00 19,0 8,0 29 16 NE 10
19.04.2019 12:00:00 18,0 8,0 24 13 ENE 10
19.04.2019 11:00:00 16,0 9,0 21 11 ENE 10
19.04.2019 10:00:00 16,0 9,0 18 10 ENE 10
19.04.2019 09:00:00 15,0 9,0 18 10 ENE 10
19.04.2019 08:00:00 15,0 8,0 21 11 NE 10
19.04.2019 07:00:00 15,0 7,0 16 9 NE 10
19.04.2019 06:00:00 15,0 7,0 18 10 NE 10
19.04.2019 05:00:00 15,0 8,0 15 8 ENE 10
19.04.2019 04:00:00 15,0 8,0 15 8 ENE 10
19.04.2019 03:00:00 15,0 8,0 18 10 NE 10
19.04.2019 02:00:00 15,0 8,0 16 9 ENE 10
19.04.2019 01:00:00 15,0 7,0 21 11 NE 10
19.04.2019 00:00:00 16,0 7,0 18 10 NE 10
18.04.2019 23:00:00 16,0 7,0 16 9 NE 10
18.04.2019 22:00:00 16,0 7,0 13 7 ENE 10
18.04.2019 21:00:00 16,0 9,0 18 10 ENE 10
18.04.2019 20:00:00 16,0 10,0 16 9 NE 10
18.04.2019 19:00:00 18,0 9,0 18 10 ENE 10
18.04.2019 18:00:00 18,0 10,0 21 11 E 10
18.04.2019 17:00:00 18,0 11,0 15 8 E 10
18.04.2019 16:00:00 19,0 9,0 24 13 NE 10
18.04.2019 15:00:00 19,0 9,0 18 10 NE 10
18.04.2019 14:00:00 18,0 8,0 18 10 ENE 10
18.04.2019 13:00:00 17,0 8,0 13 7 NE 10
18.04.2019 12:00:00 16,0 7,0 15 8 NE 10
18.04.2019 11:00:00 16,0 8,0 15 8 NE 10
18.04.2019 10:00:00 15,0 10,0 11 6 NE 10
18.04.2019 09:00:00 13,0 10,0 2 1 - 10
18.04.2019 08:00:00 12,0 10,0 9 5 NNE 10
18.04.2019 07:00:00 12,0 11,0 11 6 NNE 10
18.04.2019 06:00:00 12,0 11,0 11 6 NNE 10
18.04.2019 05:00:00 13,0 11,0 5 3 NNE 10
18.04.2019 04:00:00 13,0 11,0 4 2 - 10
18.04.2019 03:00:00 13,0 11,0 9 5 NNE 10
18.04.2019 02:00:00 13,0 11,0 8 4 NNE 10
18.04.2019 01:00:00 13,0 11,0 9 5 NNE 10
18.04.2019 00:00:00 13,0 11,0 5 3 NNE 10
17.04.2019 23:00:00 14,0 11,0 8 4 NE 10
17.04.2019 22:00:00 14,0 12,0 11 6 ESE 10
17.04.2019 21:00:00 14,0 12,0 11 6 ESE 10
17.04.2019 20:00:00 15,0 11,0 11 6 ESE 10
17.04.2019 19:00:00 16,0 11,0 13 7 ESE 10
17.04.2019 18:00:00 17,0 11,0 15 8 E 10
17.04.2019 17:00:00 18,0 11,0 15 8 ESE 10
17.04.2019 16:00:00 17,0 11,0 13 7 SE 10
17.04.2019 15:00:00 17,0 11,0 13 7 ESE 10
17.04.2019 14:00:00 17,0 11,0 11 6 SE 10
17.04.2019 13:00:00 17,0 11,0 9 5 SE 10
17.04.2019 12:00:00 16,0 11,0 8 4 SE 10
17.04.2019 11:00:00 15,0 11,0 9 5 SE 8
17.04.2019 10:00:00 14,0 11,0 11 6 SE 7
17.04.2019 09:00:00 12,0 10,0 5 3 SE 8
17.04.2019 08:00:00 9,0 8,0 4 2 WNW 8
17.04.2019 07:00:00 8,0 7,0 0 0 N 8
17.04.2019 06:00:00 8,0 7,0 5 3 W 8
17.04.2019 05:00:00 8,0 8,0 8 4 W 7
17.04.2019 04:00:00 9,0 8,0 5 3 W 7
17.04.2019 03:00:00 11,0 10,0 4 2 - 9
17.04.2019 02:00:00 11,0 10,0 8 4 NW 10
17.04.2019 01:00:00 11,0 10,0 5 3 W 10
17.04.2019 00:00:00 12,0 10,0 5 3 W 10
16.04.2019 23:00:00 14,0 11,0 4 2 - 10
16.04.2019 22:00:00 13,0 11,0 5 3 SSE 10
16.04.2019 21:00:00 13,0 11,0 9 5 SE 10
16.04.2019 20:00:00 14,0 12,0 11 6 ESE 10
16.04.2019 19:00:00 15,0 11,0 16 9 ESE 10
16.04.2019 18:00:00 17,0 11,0 16 9 ESE 10
16.04.2019 17:00:00 18,0 10,0 18 10 ESE 10
16.04.2019 16:00:00 18,0 10,0 15 8 SE 10
16.04.2019 15:00:00 18,0 10,0 13 7 SE 10
16.04.2019 14:00:00 17,0 10,0 9 5 ENE 10
16.04.2019 13:00:00 17,0 10,0 11 6 SE 10
16.04.2019 12:00:00 17,0 10,0 4 2 NE 10
16.04.2019 11:00:00 15,0 9,0 2 1 WSW 10
16.04.2019 10:00:00 14,0 7,0 4 2 SE 10
16.04.2019 09:00:00 12,0 7,0 0 0 N 10
16.04.2019 08:00:00 9,0 7,0 8 4 W 10
16.04.2019 07:00:00 8,0 6,0 0 0 N 10
16.04.2019 06:00:00 9,0 6,0 2 1 - 10
16.04.2019 05:00:00 9,0 7,0 5 3 SW 10
16.04.2019 04:00:00 9,0 7,0 4 2 - 10
16.04.2019 03:00:00 10,0 6,0 4 2 - 10
16.04.2019 02:00:00 10,0 7,0 8 4 WNW 10
16.04.2019 01:00:00 10,0 5,0 11 6 W 10
16.04.2019 00:00:00 9,0 5,0 4 2 - 10
15.04.2019 23:00:00 12,0 4,0 4 2 - 10
15.04.2019 22:00:00 12,0 4,0 9 5 ESE 10
15.04.2019 21:00:00 13,0 2,0 9 5 E 10
15.04.2019 20:00:00 14,0 4,0 13 7 SE 10
15.04.2019 19:00:00 15,0 5,0 9 5 ESE 10
15.04.2019 18:00:00 15,0 7,0 15 8 E 10
15.04.2019 17:00:00 15,0 7,0 11 6 ESE 10
15.04.2019 16:00:00 15,0 6,0 11 6 SE 10
15.04.2019 15:00:00 15,0 7,0 18 10 SE 10
15.04.2019 14:00:00 15,0 6,0 16 9 ESE 10
15.04.2019 13:00:00 16,0 7,0 11 6 E 10
15.04.2019 12:00:00 15,0 8,0 11 6 SE 10
15.04.2019 11:00:00 14,0 6,0 9 5 ESE 10
15.04.2019 10:00:00 14,0 6,0 4 2 - 10
15.04.2019 09:00:00 11,0 7,0 0 0 N 10
15.04.2019 08:00:00 7,0 6,0 8 4 W 10
15.04.2019 07:00:00 7,0 6,0 8 4 WNW 10
15.04.2019 06:00:00 8,0 6,0 0 0 N 10
15.04.2019 05:00:00 8,0 7,0 0 0 N 10
15.04.2019 04:00:00 9,0 8,0 8 4 W 10
15.04.2019 03:00:00 10,0 9,0 0 0 N 9
15.04.2019 02:00:00 10,0 9,0 4 2 - 7
15.04.2019 01:00:00 11,0 9,0 8 4 W 8
15.04.2019 00:00:00 11,0 9,0 2 1 - 10
14.04.2019 23:00:00 11,0 9,0 5 3 W 10
14.04.2019 22:00:00 13,0 10,0 5 3 SE 10

tt = Température de l'air
td = dewpoint
ff = Vitesse du vent
dd = Direction du vent
vv = visibility

stations d'obs. à proximité